Time;durP1;ratioP1;P1;durP2;ratioP2;P2;SDS_P1;SDS_P2;PMS_P1;PMS_P2;Temp;Humidity;BMP_temperature;BMP_pressure;BME280_temperature;BME280_humidity;BME280_pressure;Samples;Min_cycle;Max_cycle;Signal;HPM_P1;HPM_P2
2022/10/31 00:02:12;;;;;;;32.83;9.88;;;18.70;99.90;;;;;;5023036;28;20109;-74
2022/10/31 00:04:37;;;;;;;29.83;10.10;;;18.60;99.90;;;;;;5015255;28;20030;-73
2022/10/31 00:07:03;;;;;;;24.27;9.85;;;18.70;99.90;;;;;;5020145;28;20030;-73
2022/10/31 00:09:29;;;;;;;25.77;9.82;;;18.70;99.90;;;;;;5025115;28;20053;-73
2022/10/31 00:11:55;;;;;;;24.23;9.00;;;18.70;99.90;;;;;;5016826;28;20033;-73
2022/10/31 00:14:21;;;;;;;23.40;9.45;;;18.70;99.90;;;;;;5031819;28;20037;-73
2022/10/31 00:16:47;;;;;;;31.58;9.20;;;18.70;99.90;;;;;;5031910;28;20025;-73
2022/10/31 00:19:13;;;;;;;26.13;9.25;;;18.70;99.90;;;;;;5026200;28;20021;-73
2022/10/31 00:21:38;;;;;;;24.80;9.38;;;18.70;99.90;;;;;;5031606;28;20029;-74
2022/10/31 00:24:05;;;;;;;30.17;10.07;;;18.70;99.90;;;;;;5016633;28;20025;-74
2022/10/31 00:26:31;;;;;;;30.83;10.63;;;18.70;99.90;;;;;;5030045;28;20063;-74
2022/10/31 00:28:58;;;;;;;27.65;9.15;;;18.70;99.90;;;;;;5023693;28;20029;-74
2022/10/31 00:31:24;;;;;;;24.63;9.15;;;18.70;99.90;;;;;;5025727;28;20108;-73
2022/10/31 00:33:50;;;;;;;22.98;9.82;;;18.70;99.90;;;;;;5022304;28;20053;-72
2022/10/31 00:36:20;;;;;;;33.20;10.18;;;18.80;99.90;;;;;;5021986;28;20483;-72
2022/10/31 00:38:47;;;;;;;30.73;10.10;;;18.70;99.90;;;;;;5029102;28;20068;-72
2022/10/31 00:41:15;;;;;;;23.60;9.50;;;18.80;99.90;;;;;;5033705;28;20117;-73
2022/10/31 00:43:42;;;;;;;18.70;8.38;;;18.80;99.90;;;;;;5022538;28;20053;-73
2022/10/31 00:46:09;;;;;;;27.75;9.10;;;18.70;99.90;;;;;;5028320;28;20042;-73
2022/10/31 00:48:35;;;;;;;24.67;9.15;;;18.70;99.90;;;;;;5027291;28;20052;-72
2022/10/31 00:51:01;;;;;;;29.77;9.13;;;18.60;99.90;;;;;;5030714;28;20026;-72
2022/10/31 00:53:27;;;;;;;24.45;9.50;;;18.50;99.90;;;;;;5024158;28;20030;-73
2022/10/31 00:55:53;;;;;;;21.30;9.05;;;18.40;99.90;;;;;;5031849;28;20493;-72
2022/10/31 00:58:18;;;;;;;29.55;9.25;;;18.40;99.90;;;;;;5023596;28;20024;-73
2022/10/31 01:00:46;;;;;;;27.65;9.90;;;18.30;99.90;;;;;;5030115;28;20028;-73
2022/10/31 01:03:12;;;;;;;26.50;9.38;;;18.30;99.90;;;;;;5018417;28;20044;-72
2022/10/31 01:05:37;;;;;;;27.23;10.25;;;18.30;99.90;;;;;;5027095;28;20105;-74
2022/10/31 01:08:03;;;;;;;22.30;9.07;;;18.20;99.90;;;;;;5018230;28;20038;-73
2022/10/31 01:10:29;;;;;;;25.67;9.88;;;18.30;99.90;;;;;;5022415;28;20097;-73
2022/10/31 01:12:55;;;;;;;25.75;9.85;;;18.20;99.90;;;;;;5019828;28;20049;-73
2022/10/31 01:15:22;;;;;;;22.27;10.85;;;18.10;99.90;;;;;;5024740;28;20418;-73
2022/10/31 01:17:49;;;;;;;20.58;9.73;;;18.10;99.90;;;;;;5030057;28;20018;-73
2022/10/31 01:20:16;;;;;;;24.05;10.45;;;18.00;99.90;;;;;;5022798;28;20025;-73
2022/10/31 01:22:42;;;;;;;28.98;10.45;;;18.00;99.90;;;;;;5028777;28;20030;-72
2022/10/31 01:25:09;;;;;;;25.25;9.85;;;17.80;99.90;;;;;;5021644;28;20025;-73
2022/10/31 01:27:35;;;;;;;33.88;10.10;;;17.70;99.90;;;;;;5021973;28;20019;-72
2022/10/31 01:30:00;;;;;;;25.90;9.98;;;17.70;99.90;;;;;;5022123;28;20026;-73
2022/10/31 01:32:28;;;;;;;27.60;10.30;;;17.60;99.90;;;;;;5018232;28;20030;-73
2022/10/31 01:34:54;;;;;;;29.17;10.75;;;17.60;99.90;;;;;;5020155;28;20017;-73
2022/10/31 01:37:20;;;;;;;30.30;11.93;;;17.60;99.90;;;;;;5034365;28;20033;-72
2022/10/31 01:39:48;;;;;;;27.77;11.10;;;17.60;99.90;;;;;;5021953;28;20072;-73
2022/10/31 01:42:20;;;;;;;32.45;10.77;;;17.50;99.90;;;;;;5027399;28;20057;-72
2022/10/31 01:44:56;;;;;;;30.67;12.50;;;17.50;99.90;;;;;;5019350;28;20109;-72
2022/10/31 01:47:37;;;;;;;28.52;10.45;;;17.40;99.90;;;;;;5029564;28;20029;-73
2022/10/31 01:50:12;;;;;;;35.45;13.15;;;17.50;99.90;;;;;;5020652;28;20026;-72
2022/10/31 01:52:47;;;;;;;26.00;11.55;;;17.50;99.90;;;;;;5025536;28;20068;-72
2022/10/31 01:55:33;;;;;;;32.13;11.02;;;17.50;99.90;;;;;;5024984;28;20105;-73
2022/10/31 01:58:06;;;;;;;24.73;10.75;;;17.50;99.90;;;;;;5021342;28;20018;-73
2022/10/31 02:00:32;;;;;;;36.28;11.05;;;17.50;99.90;;;;;;5025375;28;20359;-73
2022/10/31 02:02:59;;;;;;;27.40;11.88;;;17.50;99.90;;;;;;5016521;28;20054;-73
2022/10/31 02:05:28;;;;;;;28.58;12.45;;;17.50;99.90;;;;;;5020655;28;20383;-73
2022/10/31 02:08:27;;;;;;;27.52;10.15;;;17.50;99.90;;;;;;5015925;28;20036;-73
2022/10/31 02:10:54;;;;;;;27.38;10.90;;;17.50;99.90;;;;;;5021024;28;20038;-72
2022/10/31 02:13:20;;;;;;;27.95;11.30;;;17.40;99.90;;;;;;5014083;28;20422;-74
2022/10/31 02:15:53;;;;;;;30.83;12.80;;;17.50;99.90;;;;;;5026625;28;20021;-73
2022/10/31 02:18:19;;;;;;;30.83;11.27;;;17.50;99.90;;;;;;5018950;28;20030;-73
2022/10/31 02:21:12;;;;;;;24.48;11.20;;;17.40;99.90;;;;;;5025874;28;20145;-73
2022/10/31 02:24:15;;;;;;;21.02;11.57;;;17.40;99.90;;;;;;5014878;28;20029;-73
2022/10/31 02:27:02;;;;;;;25.17;10.80;;;17.50;99.90;;;;;;5017748;28;20014;-73
2022/10/31 02:30:04;;;;;;;23.70;10.85;;;17.50;99.90;;;;;;5018711;28;20027;-73
2022/10/31 02:32:43;;;;;;;35.70;11.57;;;17.60;99.90;;;;;;5008264;28;20034;-73
2022/10/31 02:35:43;;;;;;;30.08;11.43;;;17.50;99.90;;;;;;5017204;28;20030;-73
2022/10/31 02:38:39;;;;;;;32.80;11.88;;;17.50;99.90;;;;;;5026127;28;20022;-73
2022/10/31 02:41:08;;;;;;;29.08;11.65;;;17.50;99.90;;;;;;5029880;28;20053;-72
2022/10/31 02:43:46;;;;;;;27.70;11.77;;;17.40;99.90;;;;;;5021272;28;20077;-72
2022/10/31 02:46:24;;;;;;;27.88;11.40;;;17.40;99.90;;;;;;5019563;28;20108;-72
2022/10/31 02:48:54;;;;;;;28.98;10.57;;;17.40;99.90;;;;;;5010919;28;20119;-72
2022/10/31 02:51:20;;;;;;;32.28;12.18;;;17.40;99.90;;;;;;5025492;28;20085;-72
2022/10/31 02:53:46;;;;;;;24.65;11.25;;;17.30;99.90;;;;;;5017207;28;20026;-72
2022/10/31 02:56:15;;;;;;;28.27;11.57;;;17.30;99.90;;;;;;5023144;28;20447;-72
2022/10/31 02:59:04;;;;;;;30.73;11.43;;;17.20;99.90;;;;;;5021553;28;20017;-74
2022/10/31 03:01:57;;;;;;;28.08;11.68;;;17.10;99.90;;;;;;5021077;28;20026;-72
2022/10/31 03:04:45;;;;;;;22.98;11.75;;;17.10;99.90;;;;;;5017632;28;20120;-73
2022/10/31 03:07:36;;;;;;;34.00;12.25;;;17.10;99.90;;;;;;5019068;28;20029;-73
2022/10/31 03:10:24;;;;;;;37.47;13.48;;;17.10;99.90;;;;;;5013538;28;20426;-73
2022/10/31 03:13:19;;;;;;;26.33;11.07;;;17.10;99.90;;;;;;5004628;28;20121;-73
2022/10/31 03:15:49;;;;;;;23.08;11.30;;;17.10;99.90;;;;;;5026102;28;20021;-72
2022/10/31 03:18:17;;;;;;;26.55;12.43;;;17.10;99.90;;;;;;5023191;28;20029;-73
2022/10/31 03:20:49;;;;;;;26.90;11.80;;;17.10;99.90;;;;;;5023609;28;20068;-72
2022/10/31 03:23:18;;;;;;;31.08;12.35;;;17.10;99.90;;;;;;5018924;28;20122;-72
2022/10/31 03:25:44;;;;;;;39.05;12.57;;;17.10;99.90;;;;;;5021313;28;20061;-73
2022/10/31 03:28:14;;;;;;;31.63;11.25;;;17.00;99.90;;;;;;5019818;28;20021;-73
2022/10/31 03:30:43;;;;;;;32.38;13.20;;;17.10;99.90;;;;;;5019305;28;20122;-73
2022/10/31 03:33:16;;;;;;;41.08;14.07;;;17.10;99.90;;;;;;5016651;28;20024;-73
2022/10/31 03:35:46;;;;;;;30.98;11.60;;;17.10;99.90;;;;;;5026017;28;20083;-73
2022/10/31 03:38:14;;;;;;;31.67;12.57;;;17.00;99.90;;;;;;5027515;28;20033;-73
2022/10/31 03:40:44;;;;;;;32.42;11.65;;;17.10;99.90;;;;;;5025650;28;20478;-73
2022/10/31 03:43:18;;;;;;;26.52;12.90;;;17.00;99.90;;;;;;5025313;28;20030;-74
2022/10/31 03:45:47;;;;;;;32.40;12.75;;;17.00;99.90;;;;;;5025897;28;20474;-73
2022/10/31 03:48:18;;;;;;;37.20;13.30;;;17.00;99.90;;;;;;5020032;28;20461;-73
2022/10/31 03:50:51;;;;;;;30.88;13.68;;;17.00;99.90;;;;;;5023926;28;20053;-72
2022/10/31 03:53:26;;;;;;;35.55;12.02;;;17.00;99.90;;;;;;5020358;28;20060;-72
2022/10/31 03:55:52;;;;;;;25.13;12.32;;;17.00;99.90;;;;;;5022526;28;20017;-73
2022/10/31 03:58:24;;;;;;;29.70;12.45;;;16.90;99.90;;;;;;5014886;28;20033;-72
2022/10/31 04:00:52;;;;;;;36.10;12.80;;;16.90;99.90;;;;;;5020105;28;20018;-72
2022/10/31 04:03:23;;;;;;;30.65;11.98;;;16.90;99.90;;;;;;5013556;28;20105;-73
2022/10/31 04:05:52;;;;;;;27.30;12.95;;;16.90;99.90;;;;;;5016211;28;20018;-72
2022/10/31 04:08:23;;;;;;;29.70;12.65;;;16.90;99.90;;;;;;5015182;28;20061;-72
2022/10/31 04:10:50;;;;;;;30.60;12.05;;;16.90;99.90;;;;;;5015382;28;20104;-72
2022/10/31 04:13:21;;;;;;;35.72;13.10;;;16.90;99.90;;;;;;5016642;28;20045;-72
2022/10/31 04:15:49;;;;;;;33.50;13.02;;;16.90;99.90;;;;;;5025137;28;20432;-73
2022/10/31 04:18:15;;;;;;;30.50;13.23;;;16.90;99.90;;;;;;5018808;28;20506;-72
2022/10/31 04:20:42;;;;;;;24.52;11.48;;;17.00;99.90;;;;;;5039033;28;20559;-72
2022/10/31 04:23:22;;;;;;;30.92;12.63;;;17.00;99.90;;;;;;5017360;28;20562;-73
2022/10/31 04:25:47;;;;;;;26.45;12.23;;;17.00;99.90;;;;;;5009551;28;20532;-73
2022/10/31 04:28:13;;;;;;;27.63;11.77;;;17.00;99.90;;;;;;5017884;28;20038;-73
2022/10/31 04:30:39;;;;;;;28.27;11.60;;;16.90;99.90;;;;;;5017737;28;20049;-72
2022/10/31 04:33:05;;;;;;;30.08;12.75;;;17.00;99.90;;;;;;5016523;28;20027;-72
2022/10/31 04:35:31;;;;;;;29.58;12.45;;;16.90;99.90;;;;;;5015362;28;20025;-72
2022/10/31 04:37:57;;;;;;;25.27;12.20;;;16.90;99.90;;;;;;5022330;28;20014;-72
2022/10/31 04:40:22;;;;;;;26.92;12.43;;;16.90;99.90;;;;;;5023500;28;20028;-72
2022/10/31 04:42:48;;;;;;;30.25;13.40;;;16.90;99.90;;;;;;5024589;28;20046;-73
2022/10/31 04:45:14;;;;;;;31.27;11.80;;;16.90;99.90;;;;;;5022618;28;20372;-73
2022/10/31 04:47:40;;;;;;;29.20;12.55;;;16.90;99.90;;;;;;5025700;28;20168;-73
2022/10/31 04:50:06;;;;;;;27.15;12.25;;;16.90;99.90;;;;;;5019937;28;20420;-73
2022/10/31 04:52:32;;;;;;;29.55;12.18;;;16.90;99.90;;;;;;5024992;28;20023;-73
2022/10/31 04:54:58;;;;;;;28.40;13.10;;;16.80;99.90;;;;;;5015994;28;20022;-74
2022/10/31 04:57:24;;;;;;;36.78;14.02;;;16.80;99.90;;;;;;5023909;28;20509;-73
2022/10/31 04:59:49;;;;;;;34.05;11.73;;;16.80;99.90;;;;;;5019778;28;20108;-73
2022/10/31 05:02:15;;;;;;;30.30;14.02;;;16.70;99.90;;;;;;5023172;28;20019;-73
2022/10/31 05:04:41;;;;;;;27.95;12.98;;;16.70;99.90;;;;;;5026367;28;20033;-73
2022/10/31 05:07:07;;;;;;;30.58;13.13;;;16.70;99.90;;;;;;5023408;28;20028;-73
2022/10/31 05:09:33;;;;;;;31.75;13.63;;;16.70;99.90;;;;;;5018630;28;20449;-73
2022/10/31 05:11:59;;;;;;;28.73;12.70;;;16.70;99.90;;;;;;5020552;28;20030;-73
2022/10/31 05:14:24;;;;;;;31.05;13.30;;;16.70;99.90;;;;;;5019196;28;20041;-73
2022/10/31 05:16:50;;;;;;;24.33;12.38;;;16.70;99.90;;;;;;5030514;28;20057;-73
2022/10/31 05:19:16;;;;;;;29.98;14.25;;;16.70;99.90;;;;;;5023744;28;20109;-74
2022/10/31 05:21:42;;;;;;;35.85;13.13;;;16.60;99.90;;;;;;5024074;28;20032;-74
2022/10/31 05:24:08;;;;;;;39.60;12.18;;;16.60;99.90;;;;;;5010898;28;20034;-74
2022/10/31 05:26:33;;;;;;;37.10;13.63;;;16.60;99.90;;;;;;5002328;28;20517;-74
2022/10/31 05:28:59;;;;;;;30.13;11.82;;;16.60;99.90;;;;;;5009502;28;20041;-74
2022/10/31 05:31:25;;;;;;;28.73;12.23;;;16.60;99.90;;;;;;5000802;28;20073;-73
2022/10/31 05:33:51;;;;;;;27.58;12.60;;;16.60;99.90;;;;;;5006797;28;20056;-73
2022/10/31 05:36:17;;;;;;;30.27;13.98;;;16.60;99.90;;;;;;5016635;28;20044;-73
2022/10/31 05:38:42;;;;;;;32.92;12.93;;;16.50;99.90;;;;;;5014969;28;20101;-73
2022/10/31 05:41:09;;;;;;;33.75;13.07;;;16.50;99.90;;;;;;5017721;28;20049;-74
2022/10/31 05:43:35;;;;;;;32.17;13.05;;;16.50;99.90;;;;;;5014843;28;20077;-74
2022/10/31 05:46:01;;;;;;;27.25;12.82;;;16.50;99.90;;;;;;5030734;28;20030;-74
2022/10/31 05:48:27;;;;;;;38.20;14.27;;;16.50;99.90;;;;;;5012814;28;20022;-74
2022/10/31 05:50:52;;;;;;;32.85;14.00;;;16.50;99.90;;;;;;5015564;28;20022;-73
2022/10/31 05:53:18;;;;;;;34.83;14.48;;;16.50;99.90;;;;;;5014594;28;20053;-74
2022/10/31 05:55:44;;;;;;;26.98;12.55;;;16.50;99.90;;;;;;5014237;28;20025;-74
2022/10/31 05:58:11;;;;;;;36.90;14.02;;;16.50;99.90;;;;;;5012583;28;20019;-75
2022/10/31 06:00:37;;;;;;;28.63;13.43;;;16.50;99.90;;;;;;5013584;28;20100;-74
2022/10/31 06:03:05;;;;;;;34.95;13.52;;;16.40;99.90;;;;;;5009211;28;20026;-74
2022/10/31 06:05:31;;;;;;;34.75;13.50;;;16.50;99.90;;;;;;5002691;28;20027;-74
2022/10/31 06:07:57;;;;;;;39.45;12.60;;;16.50;99.90;;;;;;5000803;28;20446;-73
2022/10/31 06:10:24;;;;;;;32.83;13.13;;;16.50;99.90;;;;;;5000634;28;20058;-74
2022/10/31 06:12:50;;;;;;;30.00;13.18;;;16.50;99.90;;;;;;4999382;28;20706;-75
2022/10/31 06:15:18;;;;;;;31.33;12.40;;;16.50;99.90;;;;;;4999452;28;20109;-73
2022/10/31 06:17:43;;;;;;;35.60;14.43;;;16.50;99.90;;;;;;4998383;28;20046;-73
2022/10/31 06:20:10;;;;;;;45.25;14.52;;;16.50;99.90;;;;;;4999706;28;20022;-74
2022/10/31 06:22:36;;;;;;;36.53;13.02;;;16.50;99.90;;;;;;5001907;28;20033;-74
2022/10/31 06:25:02;;;;;;;27.38;12.88;;;16.40;99.90;;;;;;5013726;28;20030;-74
2022/10/31 06:27:28;;;;;;;33.65;12.63;;;16.40;99.90;;;;;;4999062;28;20026;-74
2022/10/31 06:29:54;;;;;;;31.77;13.70;;;16.40;99.90;;;;;;5000469;28;20026;-73
2022/10/31 06:32:19;;;;;;;30.88;14.10;;;16.40;99.90;;;;;;5012427;28;20409;-74
2022/10/31 06:34:48;;;;;;;25.30;13.05;;;16.40;99.90;;;;;;5000232;28;20117;-74
2022/10/31 06:37:14;;;;;;;32.55;12.45;;;16.50;99.90;;;;;;4997231;28;20033;-74
2022/10/31 06:39:40;;;;;;;32.20;14.35;;;16.50;99.90;;;;;;5000479;28;20044;-74
2022/10/31 06:42:06;;;;;;;31.88;13.77;;;16.60;99.90;;;;;;4997272;28;20111;-74
2022/10/31 06:44:32;;;;;;;33.28;13.70;;;16.60;99.90;;;;;;5001429;28;20041;-74
2022/10/31 06:46:58;;;;;;;27.15;12.65;;;16.60;99.90;;;;;;5009813;28;20037;-74
2022/10/31 06:49:24;;;;;;;22.38;12.02;;;16.60;99.90;;;;;;5015083;28;20030;-74
2022/10/31 06:51:50;;;;;;;37.92;14.07;;;16.70;99.90;;;;;;5028143;28;20394;-74
2022/10/31 06:54:17;;;;;;;40.45;13.75;;;16.70;99.90;;;;;;5017503;28;20026;-73
2022/10/31 06:56:45;;;;;;;34.45;14.15;;;16.80;99.90;;;;;;5023158;28;20560;-75
2022/10/31 06:59:11;;;;;;;29.42;12.63;;;16.90;99.90;;;;;;5022413;28;20036;-74
2022/10/31 07:01:37;;;;;;;28.83;12.50;;;16.90;99.90;;;;;;5020686;28;20018;-74
2022/10/31 07:04:03;;;;;;;35.53;12.63;;;17.00;99.90;;;;;;5016473;28;20175;-75
2022/10/31 07:06:29;;;;;;;30.75;11.93;;;17.10;99.90;;;;;;5019392;28;20498;-75
2022/10/31 07:08:54;;;;;;;32.25;12.05;;;17.20;99.90;;;;;;5015345;28;20076;-74
2022/10/31 07:11:20;;;;;;;31.83;11.27;;;17.30;99.90;;;;;;5019906;28;20474;-74
2022/10/31 07:13:46;;;;;;;27.80;11.63;;;17.30;99.90;;;;;;5010617;28;20065;-74
2022/10/31 07:16:13;;;;;;;36.97;11.60;;;17.40;99.90;;;;;;5019024;28;20072;-74
2022/10/31 07:18:39;;;;;;;27.90;11.95;;;17.50;99.90;;;;;;5010669;28;20030;-74
2022/10/31 07:21:05;;;;;;;27.60;12.05;;;17.60;99.90;;;;;;5026474;28;20490;-74
2022/10/31 07:23:31;;;;;;;34.63;12.13;;;17.70;99.90;;;;;;5015586;28;20022;-74
2022/10/31 07:25:58;;;;;;;30.80;10.98;;;17.80;99.90;;;;;;5015158;28;20026;-74
2022/10/31 07:28:24;;;;;;;26.73;11.07;;;17.90;99.90;;;;;;5009979;28;20030;-74
2022/10/31 07:30:52;;;;;;;25.70;10.35;;;17.90;99.90;;;;;;5013224;28;20082;-75
2022/10/31 07:33:17;;;;;;;29.23;11.38;;;18.00;99.90;;;;;;5017002;28;20397;-74
2022/10/31 07:35:43;;;;;;;27.65;12.43;;;18.00;99.90;;;;;;5018932;28;20059;-74
2022/10/31 07:38:11;;;;;;;31.17;11.60;;;18.00;99.90;;;;;;5019531;28;20037;-75
2022/10/31 07:40:37;;;;;;;31.90;10.55;;;18.10;99.90;;;;;;5017856;28;20025;-74
2022/10/31 07:43:03;;;;;;;26.38;10.82;;;18.00;99.90;;;;;;5015750;28;20092;-74
2022/10/31 07:45:29;;;;;;;24.20;10.10;;;18.00;99.90;;;;;;5022199;28;20029;-74
2022/10/31 07:47:55;;;;;;;32.75;10.65;;;18.00;99.90;;;;;;5024529;28;20029;-75
2022/10/31 07:50:24;;;;;;;36.05;10.70;;;18.00;99.90;;;;;;5020788;28;20048;-74
2022/10/31 07:53:00;;;;;;;27.85;10.70;;;18.10;99.90;;;;;;5014100;28;20065;-74
2022/10/31 07:55:27;;;;;;;26.08;10.60;;;18.10;99.90;;;;;;5021448;28;20022;-75
2022/10/31 07:58:00;;;;;;;33.47;11.30;;;18.20;99.90;;;;;;5018603;28;20022;-74
2022/10/31 08:00:27;;;;;;;28.58;9.55;;;18.20;99.90;;;;;;5015813;28;20032;-74
2022/10/31 08:03:07;;;;;;;28.77;10.90;;;18.30;99.90;;;;;;5011829;28;20054;-74
2022/10/31 08:05:33;;;;;;;28.75;10.45;;;18.30;99.90;;;;;;5019501;28;20026;-74
2022/10/31 08:07:59;;;;;;;25.75;10.50;;;18.40;99.90;;;;;;5012884;28;20025;-75
2022/10/31 08:10:26;;;;;;;20.90;10.07;;;18.30;99.90;;;;;;5018487;28;20408;-75
2022/10/31 08:13:04;;;;;;;29.95;11.07;;;18.30;99.90;;;;;;5023570;28;20042;-75
2022/10/31 08:15:30;;;;;;;24.60;9.63;;;18.40;99.90;;;;;;5016672;28;20101;-75
2022/10/31 08:17:58;;;;;;;23.27;9.20;;;18.40;99.90;;;;;;5015717;28;20018;-75
2022/10/31 08:20:23;;;;;;;23.27;9.52;;;18.60;99.90;;;;;;5019368;28;20045;-74
2022/10/31 08:23:16;;;;;;;22.85;9.60;;;18.80;99.90;;;;;;5025657;28;20018;-74
2022/10/31 08:25:42;;;;;;;29.15;9.73;;;18.90;99.90;;;;;;5013759;28;20041;-72
2022/10/31 08:28:10;;;;;;;27.67;8.77;;;19.10;99.90;;;;;;5012356;28;20026;-72
2022/10/31 08:30:37;;;;;;;18.48;9.88;;;19.30;99.90;;;;;;5015956;28;20462;-73
2022/10/31 08:33:11;;;;;;;24.35;9.70;;;19.40;99.90;;;;;;5012724;28;20564;-73
2022/10/31 08:35:37;;;;;;;34.35;9.05;;;19.50;99.90;;;;;;5028303;28;20024;-74
2022/10/31 08:38:03;;;;;;;19.77;7.65;;;19.60;99.90;;;;;;5023424;28;20038;-74
2022/10/31 08:40:30;;;;;;;23.58;8.98;;;19.70;99.90;;;;;;5027322;28;20032;-74
2022/10/31 08:43:01;;;;;;;22.08;8.40;;;19.80;99.90;;;;;;5024052;28;20505;-73
2022/10/31 08:45:29;;;;;;;35.45;9.05;;;19.80;99.90;;;;;;5023822;28;20135;-74
2022/10/31 08:48:06;;;;;;;21.23;8.55;;;19.80;99.90;;;;;;5021072;28;20421;-74
2022/10/31 08:50:34;;;;;;;30.90;9.05;;;19.80;99.90;;;;;;5030674;28;20093;-74
2022/10/31 08:53:11;;;;;;;21.65;8.25;;;19.80;99.90;;;;;;5014100;28;20034;-73
2022/10/31 08:55:38;;;;;;;30.48;9.18;;;19.80;99.90;;;;;;5017777;28;20375;-73
2022/10/31 08:58:06;;;;;;;28.33;8.43;;;19.80;99.90;;;;;;5014735;28;20457;-73
2022/10/31 09:00:33;;;;;;;26.13;8.60;;;19.80;99.90;;;;;;5019958;28;20071;-73
2022/10/31 09:03:02;;;;;;;34.25;8.25;;;19.80;99.90;;;;;;5019065;28;20050;-72
2022/10/31 09:05:28;;;;;;;31.88;8.57;;;20.00;99.90;;;;;;5021877;28;20021;-74
2022/10/31 09:07:58;;;;;;;27.15;7.55;;;20.10;99.90;;;;;;5018443;28;20065;-73
2022/10/31 09:10:25;;;;;;;18.00;7.97;;;20.10;99.90;;;;;;5018485;28;20022;-73
2022/10/31 09:13:10;;;;;;;26.52;7.63;;;20.20;99.90;;;;;;5019933;28;20093;-74
2022/10/31 09:15:39;;;;;;;19.40;7.57;;;20.30;99.90;;;;;;5025253;28;20026;-74
2022/10/31 09:18:06;;;;;;;28.17;9.02;;;20.30;99.90;;;;;;5018253;28;20018;-74
2022/10/31 09:20:33;;;;;;;20.95;7.80;;;20.30;99.90;;;;;;5025454;28;20069;-74
2022/10/31 09:23:03;;;;;;;28.40;8.73;;;20.40;99.90;;;;;;5026565;28;20050;-74
2022/10/31 09:25:30;;;;;;;31.38;8.00;;;20.40;99.90;;;;;;5027042;28;20030;-73
2022/10/31 09:27:57;;;;;;;24.80;8.65;;;20.30;99.90;;;;;;5024851;28;20514;-73
2022/10/31 09:30:23;;;;;;;21.08;6.93;;;20.30;99.90;;;;;;5024554;28;20033;-74
2022/10/31 09:32:55;;;;;;;19.83;8.02;;;20.20;99.90;;;;;;5023725;28;20838;-73
2022/10/31 09:35:21;;;;;;;31.13;7.63;;;20.20;99.90;;;;;;5021429;28;20080;-73
2022/10/31 09:37:47;;;;;;;22.80;8.23;;;20.20;99.90;;;;;;5030261;28;20014;-73
2022/10/31 09:40:13;;;;;;;38.47;9.52;;;20.20;99.90;;;;;;5026679;28;20030;-73
2022/10/31 09:43:12;;;;;;;25.58;7.97;;;20.20;99.90;;;;;;5020646;28;20025;-74
2022/10/31 09:45:52;;;;;;;24.58;7.45;;;20.20;99.90;;;;;;5031797;28;20078;-73
2022/10/31 09:49:02;;;;;;;17.30;7.18;;;20.20;99.90;;;;;;5014227;28;20080;-74
2022/10/31 09:51:40;;;;;;;16.63;6.70;;;20.20;99.90;;;;;;5017700;28;20027;-73
2022/10/31 09:54:26;;;;;;;32.75;8.23;;;20.20;99.90;;;;;;5010598;28;20027;-73
2022/10/31 09:56:52;;;;;;;19.73;6.63;;;20.30;99.90;;;;;;5018845;28;20427;-72
2022/10/31 09:59:31;;;;;;;25.20;8.02;;;20.40;99.90;;;;;;5013569;28;20018;-73
2022/10/31 10:02:17;;;;;;;22.38;7.30;;;20.60;99.90;;;;;;5018575;28;20119;-73
2022/10/31 10:04:57;;;;;;;17.50;6.90;;;20.80;99.90;;;;;;5015978;28;20033;-73
2022/10/31 10:07:47;;;;;;;21.00;7.65;;;20.90;99.90;;;;;;5027678;28;20040;-73
2022/10/31 10:10:42;;;;;;;19.58;7.63;;;21.00;99.90;;;;;;5027191;28;20490;-74
2022/10/31 10:13:45;;;;;;;17.40;7.20;;;21.20;99.90;;;;;;5023001;28;20511;-74
2022/10/31 10:16:46;;;;;;;22.80;7.18;;;21.20;99.90;;;;;;5017338;28;20057;-75
2022/10/31 10:19:24;;;;;;;21.63;7.35;;;21.30;99.90;;;;;;5052406;28;20038;-75
2022/10/31 10:22:20;;;;;;;16.85;7.55;;;21.30;99.90;;;;;;5030061;28;20025;-75
2022/10/31 10:24:55;;;;;;;22.95;7.13;;;21.40;99.90;;;;;;5022357;28;20039;-74
2022/10/31 10:27:47;;;;;;;13.77;6.35;;;21.40;99.90;;;;;;5028647;28;20026;-75
2022/10/31 10:30:18;;;;;;;21.73;6.38;;;21.40;99.90;;;;;;5021407;28;20474;-75
2022/10/31 10:32:45;;;;;;;19.48;6.45;;;21.60;99.90;;;;;;5024424;28;20110;-75
2022/10/31 10:35:24;;;;;;;27.23;7.57;;;21.60;99.90;;;;;;5011914;28;20033;-75
2022/10/31 10:37:54;;;;;;;21.73;7.07;;;21.70;99.90;;;;;;5017827;28;20010;-75
2022/10/31 10:40:24;;;;;;;22.77;6.93;;;21.80;99.90;;;;;;5018359;28;20089;-75
2022/10/31 10:43:20;;;;;;;22.52;6.75;;;21.80;99.90;;;;;;5013865;28;20022;-78
2022/10/31 10:48:45;;;;;;;18.67;5.28;;;21.90;99.90;;;;;;5017752;28;20078;-78
2022/10/31 10:51:21;;;;;;;22.17;6.80;;;22.00;99.90;;;;;;5025151;28;20172;-77
2022/10/31 10:54:01;;;;;;;22.38;6.78;;;22.00;99.90;;;;;;5020079;28;20475;-77
2022/10/31 10:57:05;;;;;;;13.60;6.30;;;22.10;99.90;;;;;;5009100;28;20022;-78
2022/10/31 10:59:31;;;;;;;27.65;8.15;;;22.20;99.90;;;;;;5019000;28;20025;-75
2022/10/31 11:01:59;;;;;;;23.73;6.10;;;22.30;99.90;;;;;;5029589;28;20022;-74
2022/10/31 11:04:34;;;;;;;20.50;5.75;;;22.30;99.90;;;;;;5025537;28;20047;-76
2022/10/31 11:07:11;;;;;;;18.77;6.45;;;22.20;99.90;;;;;;5014568;28;20041;-76
2022/10/31 11:09:38;;;;;;;14.27;5.75;;;22.20;99.90;;;;;;5008701;28;20028;-76
2022/10/31 11:12:22;;;;;;;15.55;6.03;;;22.20;99.90;;;;;;5016336;28;20034;-76
2022/10/31 11:15:07;;;;;;;20.10;6.20;;;22.20;99.90;;;;;;5025981;28;20019;-76
2022/10/31 11:17:40;;;;;;;21.45;6.90;;;22.20;99.90;;;;;;5014180;28;20097;-76
2022/10/31 11:20:12;;;;;;;20.92;6.88;;;22.30;99.90;;;;;;5010037;28;20165;-76
2022/10/31 11:22:38;;;;;;;21.00;6.45;;;22.30;99.90;;;;;;5029578;28;20030;-77
2022/10/31 11:25:19;;;;;;;19.38;6.35;;;22.40;99.90;;;;;;5009848;28;20026;-77
2022/10/31 11:27:46;;;;;;;20.50;6.25;;;22.50;99.90;;;;;;5014196;28;20097;-76
2022/10/31 11:30:14;;;;;;;20.92;6.25;;;22.60;99.90;;;;;;5007251;28;20026;-77
2022/10/31 11:32:53;;;;;;;31.20;7.25;;;22.60;99.90;;;;;;5013751;28;20022;-76
2022/10/31 11:35:22;;;;;;;15.27;6.88;;;22.60;99.90;;;;;;5012441;28;20077;-77
2022/10/31 11:37:51;;;;;;;18.85;6.57;;;22.60;99.90;;;;;;5014100;28;20104;-76
2022/10/31 11:40:24;;;;;;;19.20;7.23;;;22.60;99.90;;;;;;5013501;28;20026;-77
2022/10/31 11:42:52;;;;;;;15.35;5.78;;;22.60;99.90;;;;;;5013579;28;20116;-76
2022/10/31 11:45:33;;;;;;;24.05;7.03;;;22.70;99.90;;;;;;5024853;28;20032;-78
2022/10/31 11:48:01;;;;;;;20.70;6.35;;;22.80;99.90;;;;;;5012251;28;20026;-77
2022/10/31 11:50:31;;;;;;;21.10;5.95;;;22.80;99.90;;;;;;5011418;28;20105;-77
2022/10/31 11:52:57;;;;;;;16.47;6.10;;;22.80;99.90;;;;;;5013224;28;20105;-78
2022/10/31 11:55:40;;;;;;;20.52;7.03;;;22.80;99.90;;;;;;5010780;28;20049;-77
2022/10/31 11:58:22;;;;;;;15.52;5.88;;;22.90;99.90;;;;;;5012100;28;20022;-77
2022/10/31 12:00:54;;;;;;;19.45;6.18;;;22.80;99.90;;;;;;5013565;28;20112;-77
2022/10/31 12:03:23;;;;;;;19.27;5.55;;;22.80;99.90;;;;;;5027284;28;20029;-78
2022/10/31 12:06:11;;;;;;;20.10;6.72;;;22.80;99.90;;;;;;5013747;28;20029;-77
2022/10/31 12:08:39;;;;;;;22.23;7.13;;;22.90;99.90;;;;;;5025257;28;20022;-76
2022/10/31 12:11:20;;;;;;;15.55;5.55;;;22.80;99.90;;;;;;5014722;28;20111;-76
2022/10/31 12:13:55;;;;;;;27.38;5.35;;;22.70;99.90;;;;;;5025008;28;20049;-77
2022/10/31 12:16:31;;;;;;;15.95;6.45;;;22.70;99.90;;;;;;5014750;28;20018;-76
2022/10/31 12:19:35;;;;;;;21.15;6.07;;;22.70;99.90;;;;;;5012693;28;20018;-76
2022/10/31 12:22:16;;;;;;;18.38;5.63;;;22.70;99.90;;;;;;5021658;28;20049;-75
2022/10/31 12:25:11;;;;;;;14.98;5.60;;;22.80;99.90;;;;;;5027686;28;20088;-77
2022/10/31 12:27:45;;;;;;;17.50;6.70;;;22.90;99.90;;;;;;5016212;28;20034;-76
2022/10/31 12:30:19;;;;;;;22.80;7.05;;;22.90;99.90;;;;;;5009948;28;20030;-76
2022/10/31 12:33:24;;;;;;;30.52;7.40;;;23.00;99.90;;;;;;5010774;28;20403;-79
2022/10/31 12:36:02;;;;;;;17.13;5.50;;;23.00;99.90;;;;;;5003082;28;20041;-76
2022/10/31 12:38:37;;;;;;;20.77;6.95;;;23.10;99.90;;;;;;5017672;28;20128;-75
2022/10/31 12:41:21;;;;;;;18.67;6.13;;;23.10;99.90;;;;;;5024376;28;20026;-76
2022/10/31 12:43:56;;;;;;;18.65;5.85;;;23.10;99.90;;;;;;5018324;28;20030;-76
2022/10/31 12:46:54;;;;;;;15.40;6.07;;;23.10;99.90;;;;;;5021370;28;20053;-75
2022/10/31 12:49:33;;;;;;;20.55;6.07;;;23.10;99.90;;;;;;5018715;28;20441;-75
2022/10/31 12:52:31;;;;;;;17.92;6.50;;;23.00;99.90;;;;;;5016314;28;20034;-75
2022/10/31 12:55:19;;;;;;;21.63;6.30;;;23.10;99.90;;;;;;5022748;28;20112;-75
2022/10/31 12:57:50;;;;;;;17.83;6.28;;;23.20;99.90;;;;;;5025282;28;20145;-75